Eagle S Nest — V7NR3 — position and weather

sailwx.info

Track history (hours):
 
Tides and Currents Weather Stations Pressure Air Temp Water Temp Dewpoint Dewpoint Depression Visibility Wind Speed Wind Dir Waves Ship Positions

Eagle S Nest

Last reported at 2018-May-06 19:34 UTC. Time now 2018-May-20 23:16 UTC.
Position N 25°38' W 080°17'.
Warning: this ship's position is 14 days out of date.

Length 33 m; draft 1.8 m.

Type: Pleasure craft. MMSI: 538070435.

Date/timePositionNaut miles runAvg speedWind from/ knotsBaromVisibWave heightAir tempDewpointWater temp
2018-May-06 19:34N 25°38' W 080°17'1 5.1
2018-May-06 19:19N 25°37' W 080°17'2 7.2
2018-May-06 18:59N 25°38' W 080°14'3 5.9
2018-May-06 18:31N 25°40' W 080°12'2 3.7
2018-May-06 17:56N 25°42' W 080°11'0 0.0
2018-May-06 17:23N 25°42' W 080°11'0 0.0
2018-May-06 16:59N 25°42' W 080°11'0 0.0
2018-May-06 16:29N 25°42' W 080°11'0 0.0
2018-May-06 15:59N 25°42' W 080°11'0 0.0
2018-May-06 15:20N 25°42' W 080°11'0 0.0
2018-May-06 14:53N 25°42' W 080°11'0 0.0
2018-May-06 14:29N 25°42' W 080°11'0 0.0
2018-May-06 13:59N 25°42' W 080°11'0 0.0
2018-May-06 13:23N 25°42' W 080°11'0 0.0
2018-May-06 12:53N 25°42' W 080°11'0 0.0
2018-May-06 12:29N 25°42' W 080°11'0 0.0
2018-May-06 11:59N 25°42' W 080°11'0 0.0
2018-May-06 11:29N 25°42' W 080°11'0 0.0
2018-May-06 10:59N 25°42' W 080°11'0 0.0
2018-May-06 10:26N 25°42' W 080°11'0 0.0
2018-May-06 09:59N 25°42' W 080°11'0 0.0
2018-May-06 09:29N 25°42' W 080°11'0 0.0
2018-May-06 08:59N 25°42' W 080°11'0 0.0
2018-May-06 08:26N 25°42' W 080°11'0 0.0
2018-May-06 07:59N 25°42' W 080°11'0 0.0
2018-May-06 07:29N 25°42' W 080°11'0 0.0
2018-May-06 06:59N 25°42' W 080°11'0 0.0
2018-May-06 06:29N 25°42' W 080°11'0 0.0
2018-May-06 05:59N 25°42' W 080°11'0 0.0
2018-May-06 05:29N 25°42' W 080°11'0 0.0
2018-May-06 04:59N 25°42' W 080°11'0 0.0
2018-May-06 04:29N 25°42' W 080°11'0 0.0
2018-May-06 03:59N 25°42' W 080°11'0 0.0
2018-May-06 03:29N 25°42' W 080°11'0 0.1
2018-May-06 03:00N 25°42' W 080°11'2 4.7
2018-May-06 02:30N 25°44' W 080°11'2 2.4
2018-May-06 01:37N 25°46' W 080°11'0 0.6
2018-May-06 01:29N 25°46' W 080°11'2 4.0
2018-May-06 01:00N 25°46' W 080°09'2 3.4
2018-May-06 00:30N 25°47' W 080°11'1 2.5
2018-May-06 00:00N 25°46' W 080°10'1 1.0
2018-May-05 23:30N 25°47' W 080°10'1 1.3
2018-May-05 23:00N 25°47' W 080°11'0 0.0
2018-May-05 22:30N 25°47' W 080°11'0 0.0
2018-May-05 21:57N 25°47' W 080°11'0 0.0
2018-May-05 21:30N 25°47' W 080°11'0 0.0
2018-May-05 21:00N 25°47' W 080°11'0 0.0
2018-May-05 20:30N 25°47' W 080°11'0 0.3
2018-May-05 20:00N 25°47' W 080°11'3 6.4
2018-May-05 19:30N 25°44' W 080°11'2 4.1
2018-May-05 18:59N 25°42' W 080°11'1 2.1
2018-May-05 18:31N 25°41' W 080°12'3 7.0
2018-May-05 18:00N 25°38' W 080°14'3 5.6
2018-May-05 17:30N 25°37' W 080°17'1 1.0
2018-May-05 16:58N 25°38' W 080°17'  
Track history (hours):
 
Tides and Currents Weather Stations Pressure Air Temp Water Temp Dewpoint Dewpoint Depression Visibility Wind Speed Wind Dir Waves Ship Positions

Eagle S Nest

Last reported at 2018-May-06 19:34 UTC. Time now 2018-May-20 23:16 UTC.
Position N 25°38' W 080°17'.
Warning: this ship's position is 14 days out of date.

Length 33 m; draft 1.8 m.

Type: Pleasure craft. MMSI: 538070435.

Date/timePositionNaut miles runAvg speedWind from/ knotsBaromVisibWave heightAir tempDewpointWater temp
2018-May-06 19:34N 25°38' W 080°17'1 5.1
2018-May-06 19:19N 25°37' W 080°17'2 7.2
2018-May-06 18:59N 25°38' W 080°14'3 5.9
2018-May-06 18:31N 25°40' W 080°12'2 3.7
2018-May-06 17:56N 25°42' W 080°11'0 0.0
2018-May-06 17:23N 25°42' W 080°11'0 0.0
2018-May-06 16:59N 25°42' W 080°11'0 0.0
2018-May-06 16:29N 25°42' W 080°11'0 0.0
2018-May-06 15:59N 25°42' W 080°11'0 0.0
2018-May-06 15:20N 25°42' W 080°11'0 0.0
2018-May-06 14:53N 25°42' W 080°11'0 0.0
2018-May-06 14:29N 25°42' W 080°11'0 0.0
2018-May-06 13:59N 25°42' W 080°11'0 0.0
2018-May-06 13:23N 25°42' W 080°11'0 0.0
2018-May-06 12:53N 25°42' W 080°11'0 0.0
2018-May-06 12:29N 25°42' W 080°11'0 0.0
2018-May-06 11:59N 25°42' W 080°11'0 0.0
2018-May-06 11:29N 25°42' W 080°11'0 0.0
2018-May-06 10:59N 25°42' W 080°11'0 0.0
2018-May-06 10:26N 25°42' W 080°11'0 0.0
2018-May-06 09:59N 25°42' W 080°11'0 0.0
2018-May-06 09:29N 25°42' W 080°11'0 0.0
2018-May-06 08:59N 25°42' W 080°11'0 0.0
2018-May-06 08:26N 25°42' W 080°11'0 0.0
2018-May-06 07:59N 25°42' W 080°11'0 0.0
2018-May-06 07:29N 25°42' W 080°11'0 0.0
2018-May-06 06:59N 25°42' W 080°11'0 0.0
2018-May-06 06:29N 25°42' W 080°11'0 0.0
2018-May-06 05:59N 25°42' W 080°11'0 0.0
2018-May-06 05:29N 25°42' W 080°11'0 0.0
2018-May-06 04:59N 25°42' W 080°11'0 0.0
2018-May-06 04:29N 25°42' W 080°11'0 0.0
2018-May-06 03:59N 25°42' W 080°11'0 0.0
2018-May-06 03:29N 25°42' W 080°11'0 0.1
2018-May-06 03:00N 25°42' W 080°11'2 4.7
2018-May-06 02:30N 25°44' W 080°11'2 2.4
2018-May-06 01:37N 25°46' W 080°11'0 0.6
2018-May-06 01:29N 25°46' W 080°11'2 4.0
2018-May-06 01:00N 25°46' W 080°09'2 3.4
2018-May-06 00:30N 25°47' W 080°11'1 2.5
2018-May-06 00:00N 25°46' W 080°10'1 1.0
2018-May-05 23:30N 25°47' W 080°10'1 1.3
2018-May-05 23:00N 25°47' W 080°11'0 0.0
2018-May-05 22:30N 25°47' W 080°11'0 0.0
2018-May-05 21:57N 25°47' W 080°11'0 0.0
2018-May-05 21:30N 25°47' W 080°11'0 0.0
2018-May-05 21:00N 25°47' W 080°11'0 0.0
2018-May-05 20:30N 25°47' W 080°11'0 0.3
2018-May-05 20:00N 25°47' W 080°11'3 6.4
2018-May-05 19:30N 25°44' W 080°11'2 4.1
2018-May-05 18:59N 25°42' W 080°11'1 2.1
2018-May-05 18:31N 25°41' W 080°12'3 7.0
2018-May-05 18:00N 25°38' W 080°14'3 5.6
2018-May-05 17:30N 25°37' W 080°17'1 1.0
2018-May-05 16:58N 25°38' W 080°17'  

Dump ship's entire track history